Nimbus Weather Services

Informe meteorológico para Carrasco, Uruguay. El informe se hizo hace 48 minutos, a las 19:00 UTC. El viento soplaba a una velocidad de 4.6 m/s (10.4 millas por hora) del sur (170°), variando entre sur-sureste (150) y suroeste (220). La temperatura era 24 °C (75 °F), con un punto de rocío de 12 °C (54 °F). La sensación térmica era de 26 °C (78 °F). La presión atmosférica era 1018 hPa (30.06 inHg). Había una humedad relativa del 47.0%. Cielo: sin nubes por debajo de 1500 metros (5000 pies) y sin presencia de cumulusnimbos. En aquel momento la visibilidad global era mayor de 10 kilómetros (6.2 millas).

La clave METAR es: SUMU 231900Z 17009KT 150V220 CAVOK 24/12 Q1018 NOSIG

Consulta realizada el Viernes 23 de Febrero de 2018 16:48. Tiempo usado para generar esta pagina:786 ms.